Time;durP1;ratioP1;P1;durP2;ratioP2;P2;SDS_P1;SDS_P2;PMS_P1;PMS_P2;Temp;Humidity;BMP_temperature;BMP_pressure;BME280_temperature;BME280_humidity;BME280_pressure;Samples;Min_cycle;Max_cycle;Signal;HPM_P1;HPM_P2
2022/09/07 00:00:38;;;;;;;;;;;25.60;91.90;;;;;;5041909;28;19924;-62
2022/09/07 00:03:05;;;;;;;;;;;25.50;91.90;;;;;;5037887;28;19932;-64
2022/09/07 00:05:33;;;;;;;;;;;25.50;91.90;;;;;;5042112;28;19929;-60
2022/09/07 00:08:00;;;;;;;;;;;25.50;91.90;;;;;;5028042;28;19925;-63
2022/09/07 00:10:27;;;;;;;;;;;25.50;92.00;;;;;;5041165;28;20353;-63
2022/09/07 00:12:55;;;;;;;;;;;25.50;92.00;;;;;;5047266;28;19935;-64
2022/09/07 00:15:22;;;;;;;;;;;25.50;92.00;;;;;;5043007;28;19929;-63
2022/09/07 00:17:49;;;;;;;;;;;25.50;92.00;;;;;;5044096;28;19956;-62
2022/09/07 00:20:16;;;;;;;;;;;25.50;91.90;;;;;;5048734;28;20335;-62
2022/09/07 00:22:45;;;;;;;;;;;25.50;92.10;;;;;;5045176;28;19928;-62
2022/09/07 00:25:12;;;;;;;;;;;25.50;92.10;;;;;;5048144;28;19925;-60
2022/09/07 00:27:39;;;;;;;;;;;25.50;92.10;;;;;;5047646;28;20490;-62
2022/09/07 00:30:06;;;;;;;;;;;25.50;92.10;;;;;;5030517;28;19932;-62
2022/09/07 00:32:33;;;;;;;;;;;25.50;92.20;;;;;;5045292;28;19928;-62
2022/09/07 00:35:00;;;;;;;;;;;25.50;92.20;;;;;;5036009;28;19940;-64
2022/09/07 00:37:28;;;;;;;;;;;25.50;92.20;;;;;;5047266;28;20316;-62
2022/09/07 00:39:55;;;;;;;;;;;25.50;92.20;;;;;;5043658;28;19936;-64
2022/09/07 00:42:22;;;;;;;;;;;25.50;92.10;;;;;;5045139;28;19929;-64
2022/09/07 00:45:02;;;;;;;;;;;25.50;92.10;;;;;;5039275;28;20483;-61
2022/09/07 00:47:45;;;;;;;;;;;25.50;92.10;;;;;;5046751;28;19925;-63
2022/09/07 00:50:31;;;;;;;;;;;25.50;92.10;;;;;;5041573;28;20324;-61
2022/09/07 00:53:06;;;;;;;;;;;25.50;92.10;;;;;;5026468;28;20337;-62
2022/09/07 00:55:34;;;;;;;;;;;25.40;92.10;;;;;;5035135;28;19929;-62
2022/09/07 00:58:02;;;;;;;;;;;25.50;92.10;;;;;;5047935;28;20011;-62
2022/09/07 01:00:29;;;;;;;;;;;25.40;92.00;;;;;;5043708;28;20320;-64
2022/09/07 01:02:58;;;;;;;;;;;25.40;92.00;;;;;;5046960;28;19940;-62
2022/09/07 01:05:52;;;;;;;;;;;25.40;92.00;;;;;;5046223;28;19924;-63
2022/09/07 01:08:20;;;;;;;;;;;25.40;92.00;;;;;;5043525;28;19936;-62
2022/09/07 01:10:47;;;;;;;;;;;25.40;92.00;;;;;;5042014;28;19925;-61
2022/09/07 01:13:14;;;;;;;;;;;25.40;92.00;;;;;;5044855;28;19950;-63
2022/09/07 01:15:53;;;;;;;;;;;25.40;92.00;;;;;;5027383;28;20416;-59
2022/09/07 01:18:26;;;;;;;;;;;25.40;92.00;;;;;;5046761;28;19925;-60
2022/09/07 01:21:01;;;;;;;;;;;25.40;92.00;;;;;;5044198;28;19931;-61
2022/09/07 01:23:48;;;;;;;;;;;25.40;92.00;;;;;;5041725;28;19932;-62
2022/09/07 01:26:15;;;;;;;;;;;25.40;92.00;;;;;;5047726;28;20802;-61
2022/09/07 01:28:46;;;;;;;;;;;25.40;91.90;;;;;;5043499;28;20320;-60
2022/09/07 01:31:16;;;;;;;;;;;25.40;92.00;;;;;;5037019;28;19929;-61
2022/09/07 01:33:43;;;;;;;;;;;25.40;92.00;;;;;;5045649;28;19929;-62
2022/09/07 01:36:16;;;;;;;;;;;25.40;92.00;;;;;;5044310;28;19932;-59
2022/09/07 01:38:45;;;;;;;;;;;25.40;92.00;;;;;;5048315;28;19959;-59
2022/09/07 01:41:13;;;;;;;;;;;25.40;92.00;;;;;;5011102;28;19929;-62
2022/09/07 01:43:55;;;;;;;;;;;25.40;92.00;;;;;;5043092;28;19929;-62
2022/09/07 01:46:27;;;;;;;;;;;25.40;92.00;;;;;;5041038;28;19929;-62
2022/09/07 01:48:56;;;;;;;;;;;25.40;92.00;;;;;;5045143;28;19936;-61
2022/09/07 01:51:27;;;;;;;;;;;25.40;92.00;;;;;;5044608;28;19932;-61
2022/09/07 01:53:56;;;;;;;;;;;25.40;92.00;;;;;;5043119;28;19929;-61
2022/09/07 01:56:28;;;;;;;;;;;25.40;92.10;;;;;;5046026;28;20026;-63
2022/09/07 01:58:59;;;;;;;;;;;25.40;92.10;;;;;;5041890;28;19932;-62
2022/09/07 02:01:37;;;;;;;;;;;25.30;92.10;;;;;;5045450;28;19925;-61
2022/09/07 02:04:07;;;;;;;;;;;25.30;92.10;;;;;;5046108;28;19928;-62
2022/09/07 02:06:48;;;;;;;;;;;25.30;92.10;;;;;;5046217;28;20411;-63
2022/09/07 02:09:24;;;;;;;;;;;25.40;92.10;;;;;;5044552;28;19928;-63
2022/09/07 02:11:52;;;;;;;;;;;25.40;92.10;;;;;;5047366;28;20296;-61
2022/09/07 02:14:24;;;;;;;;;;;25.30;92.00;;;;;;5041766;28;19929;-62
2022/09/07 02:16:55;;;;;;;;;;;25.40;92.10;;;;;;5045574;28;19932;-61
2022/09/07 02:19:25;;;;;;;;;;;25.30;92.00;;;;;;5041842;28;20293;-62
2022/09/07 02:21:56;;;;;;;;;;;25.40;92.00;;;;;;5041380;28;19944;-62
2022/09/07 02:24:27;;;;;;;;;;;25.30;92.00;;;;;;5039598;28;19932;-62
2022/09/07 02:26:54;;;;;;;;;;;25.30;92.00;;;;;;5044612;28;19933;-62
2022/09/07 02:29:21;;;;;;;;;;;25.30;92.00;;;;;;5045405;28;20589;-60
2022/09/07 02:31:50;;;;;;;;;;;25.30;92.00;;;;;;5028672;28;20708;-61
2022/09/07 02:34:18;;;;;;;;;;;25.30;92.00;;;;;;5042519;28;20294;-63
2022/09/07 02:36:46;;;;;;;;;;;25.30;92.00;;;;;;5051423;28;19925;-62
2022/09/07 02:39:13;;;;;;;;;;;25.30;92.00;;;;;;5037663;28;19925;-63
2022/09/07 02:41:42;;;;;;;;;;;25.30;92.00;;;;;;5056745;28;19940;-63
2022/09/07 02:44:12;;;;;;;;;;;25.30;92.00;;;;;;5047665;28;20313;-61
2022/09/07 02:46:49;;;;;;;;;;;25.30;92.00;;;;;;5050555;28;20400;-62
2022/09/07 02:49:28;;;;;;;;;;;25.30;92.00;;;;;;5049793;28;20380;-63
2022/09/07 02:52:06;;;;;;;;;;;25.30;92.00;;;;;;5044022;28;19929;-61
2022/09/07 02:54:42;;;;;;;;;;;25.30;92.00;;;;;;5042237;28;19929;-63
2022/09/07 02:57:16;;;;;;;;;;;25.30;92.00;;;;;;5048394;28;19932;-63
2022/09/07 02:59:46;;;;;;;;;;;25.30;92.00;;;;;;5029244;28;19937;-62
2022/09/07 03:02:36;;;;;;;;;;;25.30;92.00;;;;;;5046899;28;19936;-63
2022/09/07 03:05:03;;;;;;;;;;;25.20;92.00;;;;;;5000177;28;19932;-63
2022/09/07 03:07:33;;;;;;;;;;;25.30;92.00;;;;;;5041540;28;19929;-62
2022/09/07 03:10:04;;;;;;;;;;;25.20;92.00;;;;;;5047453;28;19929;-62
2022/09/07 03:12:46;;;;;;;;;;;25.20;92.00;;;;;;5044955;28;19933;-62
2022/09/07 03:15:15;;;;;;;;;;;25.20;92.00;;;;;;5050151;28;19929;-62
2022/09/07 03:17:43;;;;;;;;;;;25.30;92.00;;;;;;5046690;28;19944;-62
2022/09/07 03:20:10;;;;;;;;;;;25.20;92.00;;;;;;5045079;28;20011;-62
2022/09/07 03:22:38;;;;;;;;;;;25.30;92.00;;;;;;5050842;28;19928;-62
2022/09/07 03:25:05;;;;;;;;;;;25.20;92.00;;;;;;5050345;28;19925;-65
2022/09/07 03:27:32;;;;;;;;;;;25.20;92.00;;;;;;5046858;28;19936;-62
2022/09/07 03:30:00;;;;;;;;;;;25.20;92.00;;;;;;5039081;28;19935;-62
2022/09/07 03:32:31;;;;;;;;;;;25.20;92.00;;;;;;5043772;28;19925;-63
2022/09/07 03:34:59;;;;;;;;;;;25.20;92.00;;;;;;5032397;28;20420;-62
2022/09/07 03:37:26;;;;;;;;;;;25.20;92.00;;;;;;5042249;28;19932;-61
2022/09/07 03:39:53;;;;;;;;;;;25.20;92.00;;;;;;5047665;28;19924;-62
2022/09/07 03:42:21;;;;;;;;;;;25.20;92.00;;;;;;5040743;28;19936;-59
2022/09/07 03:44:48;;;;;;;;;;;25.20;92.00;;;;;;5028639;28;19936;-63
2022/09/07 03:47:16;;;;;;;;;;;25.20;92.00;;;;;;5046245;28;19936;-64
2022/09/07 03:49:43;;;;;;;;;;;25.20;92.00;;;;;;5027333;28;19933;-63
2022/09/07 03:52:11;;;;;;;;;;;25.20;92.00;;;;;;5043271;28;19924;-61
2022/09/07 03:54:38;;;;;;;;;;;25.20;92.00;;;;;;5045924;28;20494;-60
2022/09/07 03:57:06;;;;;;;;;;;25.20;92.00;;;;;;5046459;28;19925;-62
2022/09/07 03:59:33;;;;;;;;;;;25.20;92.00;;;;;;5045750;28;19929;-63
2022/09/07 04:02:01;;;;;;;;;;;25.20;92.00;;;;;;5026201;28;19936;-63
2022/09/07 04:04:28;;;;;;;;;;;25.20;92.00;;;;;;5041614;28;19943;-64
2022/09/07 04:06:55;;;;;;;;;;;25.20;91.90;;;;;;5046967;28;20489;-61
2022/09/07 04:09:22;;;;;;;;;;;25.20;92.00;;;;;;5046462;28;19933;-62
2022/09/07 04:11:49;;;;;;;;;;;25.20;91.90;;;;;;5048650;28;20543;-61
2022/09/07 04:14:16;;;;;;;;;;;25.20;91.90;;;;;;5048404;28;19925;-63
2022/09/07 04:16:44;;;;;;;;;;;25.20;91.90;;;;;;5042370;28;19925;-60
2022/09/07 04:19:11;;;;;;;;;;;25.20;92.00;;;;;;5028111;28;19925;-61
2022/09/07 04:21:38;;;;;;;;;;;25.20;92.10;;;;;;5047050;28;19931;-61
2022/09/07 04:24:06;;;;;;;;;;;25.20;92.00;;;;;;5047091;28;19929;-61
2022/09/07 04:26:34;;;;;;;;;;;25.20;92.00;;;;;;5032064;28;19940;-62
2022/09/07 04:29:02;;;;;;;;;;;25.20;92.10;;;;;;5029690;28;19943;-61
2022/09/07 04:31:29;;;;;;;;;;;25.20;92.20;;;;;;5044750;28;20311;-62
2022/09/07 04:33:56;;;;;;;;;;;25.20;92.10;;;;;;5027293;28;19933;-59
2022/09/07 04:36:24;;;;;;;;;;;25.20;92.00;;;;;;5046512;28;19929;-62
2022/09/07 04:38:55;;;;;;;;;;;25.10;92.10;;;;;;5048955;28;20027;-58
2022/09/07 04:41:22;;;;;;;;;;;25.20;92.10;;;;;;5046991;28;20324;-62
2022/09/07 04:43:52;;;;;;;;;;;25.10;92.10;;;;;;5047008;28;19939;-58
2022/09/07 04:46:20;;;;;;;;;;;25.10;92.10;;;;;;5044549;28;20584;-60
2022/09/07 04:48:48;;;;;;;;;;;25.10;92.00;;;;;;5047262;28;20420;-59
2022/09/07 04:51:16;;;;;;;;;;;25.10;92.00;;;;;;5044444;28;19936;-58
2022/09/07 04:53:46;;;;;;;;;;;25.20;92.10;;;;;;5047125;28;19929;-61
2022/09/07 04:56:13;;;;;;;;;;;25.10;92.00;;;;;;5048208;28;19925;-61
2022/09/07 04:58:43;;;;;;;;;;;25.20;92.10;;;;;;5044329;28;19936;-61
2022/09/07 05:01:11;;;;;;;;;;;25.20;92.10;;;;;;5030726;28;19932;-61
2022/09/07 05:03:38;;;;;;;;;;;25.10;92.00;;;;;;5045073;28;20311;-61
2022/09/07 05:06:06;;;;;;;;;;;25.10;92.00;;;;;;5041977;28;19932;-62
2022/09/07 05:08:43;;;;;;;;;;;25.10;92.00;;;;;;5045377;28;20327;-61
2022/09/07 05:11:11;;;;;;;;;;;25.10;92.00;;;;;;5040646;28;19932;-61
2022/09/07 05:13:38;;;;;;;;;;;25.10;92.00;;;;;;5043455;28;19955;-61
2022/09/07 05:16:09;;;;;;;;;;;25.10;92.00;;;;;;5046404;28;19939;-61
2022/09/07 05:18:36;;;;;;;;;;;25.10;92.20;;;;;;5043676;28;19936;-62
2022/09/07 05:21:11;;;;;;;;;;;25.10;92.00;;;;;;5042100;28;19937;-60
2022/09/07 05:23:38;;;;;;;;;;;25.10;92.00;;;;;;5038595;28;19936;-61
2022/09/07 05:26:05;;;;;;;;;;;25.10;92.00;;;;;;5028127;28;19950;-60
2022/09/07 05:28:33;;;;;;;;;;;25.10;92.00;;;;;;5048269;28;19929;-61
2022/09/07 05:31:04;;;;;;;;;;;25.10;92.00;;;;;;5045269;28;19933;-61
2022/09/07 05:33:47;;;;;;;;;;;25.10;92.00;;;;;;5039248;28;20415;-59
2022/09/07 05:36:35;;;;;;;;;;;25.10;92.00;;;;;;5027301;28;20616;-61
2022/09/07 05:39:02;;;;;;;;;;;25.10;92.00;;;;;;5041902;28;19929;-60
2022/09/07 05:41:29;;;;;;;;;;;25.10;92.00;;;;;;5042874;28;19936;-60
2022/09/07 05:43:57;;;;;;;;;;;25.10;92.00;;;;;;5044607;28;19924;-61
2022/09/07 05:46:44;;;;;;;;;;;25.10;92.00;;;;;;5042785;28;19929;-59
2022/09/07 05:49:11;;;;;;;;;;;25.10;92.00;;;;;;5039502;28;20324;-61
2022/09/07 05:51:38;;;;;;;;;;;25.10;92.00;;;;;;5047437;28;19925;-62
2022/09/07 05:54:06;;;;;;;;;;;25.10;92.00;;;;;;5046809;28;20152;-61
2022/09/07 05:56:36;;;;;;;;;;;25.10;92.00;;;;;;5024620;28;19940;-58
2022/09/07 05:59:03;;;;;;;;;;;25.10;92.00;;;;;;5043758;28;19939;-62
2022/09/07 06:01:31;;;;;;;;;;;25.10;92.00;;;;;;5045453;28;19928;-59
2022/09/07 06:03:59;;;;;;;;;;;25.10;92.10;;;;;;5045889;28;19956;-61
2022/09/07 06:06:26;;;;;;;;;;;25.10;92.20;;;;;;5044071;28;19932;-60
2022/09/07 06:08:53;;;;;;;;;;;25.10;92.30;;;;;;5041561;28;19925;-60
2022/09/07 06:11:21;;;;;;;;;;;25.10;92.30;;;;;;5043233;28;19944;-62
2022/09/07 06:13:49;;;;;;;;;;;25.10;92.40;;;;;;5011960;28;19928;-63
2022/09/07 06:16:17;;;;;;;;;;;25.10;92.40;;;;;;5047484;28;20319;-62
2022/09/07 06:18:45;;;;;;;;;;;25.10;92.50;;;;;;5050437;28;19943;-62
2022/09/07 06:21:14;;;;;;;;;;;25.10;92.50;;;;;;5048617;28;19959;-58
2022/09/07 06:23:42;;;;;;;;;;;25.00;92.50;;;;;;5027548;28;19925;-61
2022/09/07 06:26:10;;;;;;;;;;;25.10;93.00;;;;;;5049122;28;20397;-60
2022/09/07 06:28:41;;;;;;;;;;;25.10;93.40;;;;;;5050765;28;19935;-62
2022/09/07 06:31:09;;;;;;;;;;;25.10;93.30;;;;;;5050072;28;19928;-58
2022/09/07 06:33:37;;;;;;;;;;;25.00;93.40;;;;;;5039826;28;19929;-58
2022/09/07 06:36:26;;;;;;;;;;;25.00;93.50;;;;;;5052860;28;20326;-59
2022/09/07 06:38:54;;;;;;;;;;;25.00;93.40;;;;;;5044531;28;19933;-59
2022/09/07 06:41:23;;;;;;;;;;;25.10;93.40;;;;;;5046744;28;19936;-56
2022/09/07 06:44:11;;;;;;;;;;;25.10;93.40;;;;;;5047564;28;19936;-62
2022/09/07 06:46:38;;;;;;;;;;;25.10;93.30;;;;;;5041509;28;19933;-62
2022/09/07 06:49:25;;;;;;;;;;;25.20;93.20;;;;;;5047624;28;19929;-59
2022/09/07 06:51:52;;;;;;;;;;;25.10;93.20;;;;;;5050024;28;19933;-61
2022/09/07 06:54:19;;;;;;;;;;;25.10;93.10;;;;;;5044219;28;19929;-62
2022/09/07 06:57:07;;;;;;;;;;;25.20;93.10;;;;;;5050311;28;19952;-60
2022/09/07 06:59:36;;;;;;;;;;;25.20;93.20;;;;;;5033727;28;19924;-62
2022/09/07 07:02:08;;;;;;;;;;;25.20;93.30;;;;;;5045038;28;19929;-59
2022/09/07 07:04:35;;;;;;;;;;;25.20;93.30;;;;;;5044711;28;20312;-59
2022/09/07 07:07:11;;;;;;;;;;;25.20;93.00;;;;;;5046450;28;20624;-60
2022/09/07 07:09:38;;;;;;;;;;;25.20;93.30;;;;;;5043304;28;20282;-60
2022/09/07 07:12:06;;;;;;;;;;;25.20;93.10;;;;;;5046738;28;19932;-61
2022/09/07 07:14:34;;;;;;;;;;;25.10;93.10;;;;;;5045750;28;19932;-63
2022/09/07 07:17:05;;;;;;;;;;;25.10;93.30;;;;;;5064646;28;19935;-59
2022/09/07 07:19:32;;;;;;;;;;;25.20;93.70;;;;;;5064144;28;19933;-59
2022/09/07 07:22:00;;;;;;;;;;;25.20;93.70;;;;;;5046960;28;19986;-60
2022/09/07 07:24:47;;;;;;;;;;;25.20;93.70;;;;;;5065513;28;19920;-59
2022/09/07 07:27:14;;;;;;;;;;;25.20;93.80;;;;;;5058036;28;19925;-62
2022/09/07 07:29:42;;;;;;;;;;;25.20;93.40;;;;;;5064160;28;19935;-61
2022/09/07 07:32:09;;;;;;;;;;;25.20;93.50;;;;;;5036264;28;20105;-60
2022/09/07 07:34:36;;;;;;;;;;;25.20;93.80;;;;;;5050844;28;19932;-62
2022/09/07 07:37:03;;;;;;;;;;;25.20;93.50;;;;;;5050441;28;19940;-61
2022/09/07 07:39:30;;;;;;;;;;;25.20;93.50;;;;;;5048842;28;20344;-65
2022/09/07 07:42:18;;;;;;;;;;;25.20;93.70;;;;;;5048862;28;20315;-60
2022/09/07 07:44:47;;;;;;;;;;;25.30;93.60;;;;;;5044935;28;19925;-61
2022/09/07 07:47:14;;;;;;;;;;;25.30;93.70;;;;;;5044549;28;19929;-63
2022/09/07 07:49:42;;;;;;;;;;;25.30;93.80;;;;;;5047360;28;19940;-60
2022/09/07 07:52:09;;;;;;;;;;;25.30;93.90;;;;;;5045538;28;19940;-62
2022/09/07 07:54:56;;;;;;;;;;;25.30;94.10;;;;;;5044414;28;19925;-61
2022/09/07 07:57:23;;;;;;;;;;;25.40;94.40;;;;;;5046935;28;20430;-62
2022/09/07 07:59:50;;;;;;;;;;;25.40;94.40;;;;;;5048460;28;19925;-61
2022/09/07 08:02:17;;;;;;;;;;;25.40;94.30;;;;;;5030232;28;19933;-61
2022/09/07 08:04:45;;;;;;;;;;;25.40;94.40;;;;;;5044566;28;19936;-60
2022/09/07 08:07:12;;;;;;;;;;;25.40;94.70;;;;;;5034801;28;19924;-58
2022/09/07 08:09:40;;;;;;;;;;;25.40;94.70;;;;;;5044621;28;19928;-59
2022/09/07 08:12:08;;;;;;;;;;;25.50;94.60;;;;;;5043695;28;19928;-60
2022/09/07 08:14:39;;;;;;;;;;;25.50;94.60;;;;;;5043583;28;19948;-61
2022/09/07 08:17:08;;;;;;;;;;;25.50;94.50;;;;;;5046364;28;19925;-59
2022/09/07 08:19:35;;;;;;;;;;;25.50;94.70;;;;;;5044265;28;19932;-61
2022/09/07 08:22:03;;;;;;;;;;;25.50;94.50;;;;;;5024813;28;19936;-61
2022/09/07 08:24:30;;;;;;;;;;;25.50;94.40;;;;;;5047606;28;20499;-59
2022/09/07 08:26:57;;;;;;;;;;;25.40;94.30;;;;;;5053871;28;19936;-58
2022/09/07 08:29:25;;;;;;;;;;;25.40;94.50;;;;;;5051080;28;20307;-62
2022/09/07 08:31:53;;;;;;;;;;;25.40;94.30;;;;;;5044321;28;19929;-61
2022/09/07 08:34:20;;;;;;;;;;;25.40;94.30;;;;;;5033022;28;19925;-62
2022/09/07 08:36:48;;;;;;;;;;;25.40;94.20;;;;;;5043524;28;19929;-60
2022/09/07 08:39:15;;;;;;;;;;;25.40;94.30;;;;;;5046987;28;19936;-59
2022/09/07 08:41:45;;;;;;;;;;;25.40;94.30;;;;;;5045148;28;20110;-58
2022/09/07 08:44:17;;;;;;;;;;;25.40;94.50;;;;;;5026849;28;19956;-59
2022/09/07 08:46:48;;;;;;;;;;;25.40;94.40;;;;;;5045331;28;19929;-61
2022/09/07 08:49:30;;;;;;;;;;;25.30;94.30;;;;;;5030470;28;20474;-61
2022/09/07 08:52:18;;;;;;;;;;;25.30;94.30;;;;;;5042640;28;19933;-55
2022/09/07 08:54:51;;;;;;;;;;;25.40;94.30;;;;;;5015674;28;19929;-58
2022/09/07 08:57:21;;;;;;;;;;;25.30;94.30;;;;;;5027451;28;19935;-58
2022/09/07 09:00:10;;;;;;;;;;;25.30;94.30;;;;;;5046516;28;19929;-58
2022/09/07 09:02:37;;;;;;;;;;;25.40;94.50;;;;;;5041476;28;19936;-57
2022/09/07 09:05:16;;;;;;;;;;;25.40;95.80;;;;;;5046472;28;19936;-58
2022/09/07 09:07:52;;;;;;;;;;;25.40;95.70;;;;;;5043171;28;19929;-57
2022/09/07 09:10:26;;;;;;;;;;;25.30;95.50;;;;;;5028466;28;19929;-56
2022/09/07 09:12:54;;;;;;;;;;;25.30;95.40;;;;;;5048677;28;19933;-57
2022/09/07 09:15:21;;;;;;;;;;;25.30;95.30;;;;;;5038899;28;19958;-58
2022/09/07 09:17:58;;;;;;;;;;;25.30;95.20;;;;;;5029012;28;19933;-60
2022/09/07 09:20:38;;;;;;;;;;;25.30;95.20;;;;;;5043557;28;20178;-61
2022/09/07 09:23:11;;;;;;;;;;;25.40;95.10;;;;;;5044101;28;19925;-59
2022/09/07 09:25:39;;;;;;;;;;;25.40;95.00;;;;;;5017060;28;20003;-59
2022/09/07 09:28:10;;;;;;;;;;;25.40;94.90;;;;;;5043465;28;20411;-57
2022/09/07 09:30:37;;;;;;;;;;;25.40;94.80;;;;;;5040268;28;20396;-58
2022/09/07 09:33:16;;;;;;;;;;;25.40;94.70;;;;;;5047311;28;19928;-59
2022/09/07 09:35:44;;;;;;;;;;;25.40;94.70;;;;;;5031868;28;20627;-54
2022/09/07 09:38:31;;;;;;;;;;;25.40;94.60;;;;;;5042964;28;19939;-57
2022/09/07 09:41:02;;;;;;;;;;;25.40;94.50;;;;;;5059731;28;19935;-56
2022/09/07 09:43:49;;;;;;;;;;;25.50;94.50;;;;;;5056378;28;19944;-59
2022/09/07 09:46:19;;;;;;;;;;;25.50;94.40;;;;;;5037213;28;19929;-58
2022/09/07 09:48:58;;;;;;;;;;;25.50;94.30;;;;;;5047550;28;19932;-60
2022/09/07 09:51:26;;;;;;;;;;;25.50;94.50;;;;;;5030013;28;19928;-59
2022/09/07 09:54:22;;;;;;;;;;;25.50;94.20;;;;;;5045429;28;19929;-61
2022/09/07 09:56:49;;;;;;;;;;;25.50;94.20;;;;;;5052400;28;19936;-58
2022/09/07 09:59:17;;;;;;;;;;;25.50;94.20;;;;;;5050311;28;19925;-58
2022/09/07 10:02:23;;;;;;;;;;;25.50;94.20;;;;;;5050341;28;20000;-58
2022/09/07 10:05:24;;;;;;;;;;;25.50;94.20;;;;;;5030105;28;19936;-57
2022/09/07 10:07:52;;;;;;;;;;;25.50;94.10;;;;;;5059618;28;19928;-59
2022/09/07 10:10:19;;;;;;;;;;;25.50;94.10;;;;;;5047850;28;20383;-56
2022/09/07 10:12:46;;;;;;;;;;;25.50;94.00;;;;;;5059419;28;19929;-61
2022/09/07 10:15:40;;;;;;;;;;;25.50;94.00;;;;;;5046827;28;19928;-61
2022/09/07 10:18:17;;;;;;;;;;;25.50;94.00;;;;;;5043527;28;19936;-59
2022/09/07 10:20:44;;;;;;;;;;;25.50;94.00;;;;;;5052267;28;19929;-60
2022/09/07 10:23:38;;;;;;;;;;;25.40;94.00;;;;;;5044783;28;19936;-52
2022/09/07 10:26:26;;;;;;;;;;;25.50;94.00;;;;;;5030292;28;19932;-53
2022/09/07 10:29:05;;;;;;;;;;;25.50;93.90;;;;;;5046958;28;21445;-57
2022/09/07 10:31:36;;;;;;;;;;;25.50;93.80;;;;;;5048695;28;19952;-56
2022/09/07 10:34:12;;;;;;;;;;;25.50;93.70;;;;;;5048630;28;19929;-57
2022/09/07 10:36:54;;;;;;;;;;;25.50;93.60;;;;;;5046356;28;20315;-62
2022/09/07 10:39:28;;;;;;;;;;;25.50;93.60;;;;;;5028250;28;19929;-58
2022/09/07 10:42:08;;;;;;;;;;;25.50;93.50;;;;;;5049072;28;19948;-58
2022/09/07 10:44:54;;;;;;;;;;;25.50;93.50;;;;;;5043427;28;20304;-60
2022/09/07 10:47:36;;;;;;;;;;;25.50;93.50;;;;;;5047701;28;19925;-56
2022/09/07 10:50:10;;;;;;;;;;;25.50;93.50;;;;;;5031042;28;19928;-55
2022/09/07 10:53:31;;;;;;;;;;;25.50;93.50;;;;;;5045810;28;20308;-58
2022/09/07 10:56:13;;;;;;;;;;;25.50;93.40;;;;;;4966835;28;19930;-58
2022/09/07 10:58:57;;;;;;;;;;;25.50;93.40;;;;;;4952872;28;19930;-59
2022/09/07 11:01:34;;;;;;;;;;;25.50;93.30;;;;;;5009935;28;20427;-59
2022/09/07 11:04:10;;;;;;;;;;;25.50;93.30;;;;;;5045377;28;19925;-61
2022/09/07 11:06:42;;;;;;;;;;;25.50;93.20;;;;;;5029485;28;19928;-57
2022/09/07 11:09:10;;;;;;;;;;;25.50;93.20;;;;;;5049271;28;19987;-60
2022/09/07 11:11:50;;;;;;;;;;;25.50;93.10;;;;;;5032301;28;20051;-60
2022/09/07 11:14:40;;;;;;;;;;;25.60;93.10;;;;;;5043037;28;20408;-59
2022/09/07 11:17:19;;;;;;;;;;;25.50;93.00;;;;;;5048952;28;19928;-60
2022/09/07 11:19:53;;;;;;;;;;;25.50;93.00;;;;;;5050367;28;20463;-60
2022/09/07 11:22:31;;;;;;;;;;;25.50;93.00;;;;;;5042572;28;19925;-56
2022/09/07 11:25:03;;;;;;;;;;;25.50;93.00;;;;;;5049260;28;19925;-58
2022/09/07 11:27:53;;;;;;;;;;;25.50;93.00;;;;;;5039856;28;19987;-61
2022/09/07 11:30:22;;;;;;;;;;;25.50;92.90;;;;;;5029968;28;20308;-58
2022/09/07 11:33:01;;;;;;;;;;;25.50;92.90;;;;;;5044428;28;20034;-60
2022/09/07 11:35:32;;;;;;;;;;;25.50;92.90;;;;;;5049573;28;19932;-58
2022/09/07 11:38:04;;;;;;;;;;;25.50;92.90;;;;;;5042738;28;19929;-59
2022/09/07 11:40:38;;;;;;;;;;;25.50;93.00;;;;;;5042276;28;19928;-60
2022/09/07 11:43:14;;;;;;;;;;;25.50;93.00;;;;;;5044817;28;19928;-58
2022/09/07 11:45:52;;;;;;;;;;;25.50;92.90;;;;;;5040976;28;19932;-57
2022/09/07 11:48:46;;;;;;;;;;;25.50;92.90;;;;;;5050656;28;20356;-59
2022/09/07 11:51:45;;;;;;;;;;;25.50;92.90;;;;;;5045827;28;20285;-59
2022/09/07 11:54:30;;;;;;;;;;;25.50;92.90;;;;;;5023063;28;19929;-58
2022/09/07 11:57:05;;;;;;;;;;;25.50;92.80;;;;;;5049185;28;19936;-60
2022/09/07 11:59:51;;;;;;;;;;;25.50;92.80;;;;;;5054102;28;19931;-60
2022/09/07 12:02:31;;;;;;;;;;;25.50;92.80;;;;;;5048573;28;19936;-60
2022/09/07 12:05:18;;;;;;;;;;;25.50;92.70;;;;;;5034344;28;19929;-60
2022/09/07 12:07:45;;;;;;;;;;;25.50;92.70;;;;;;5032186;28;19933;-61
2022/09/07 12:10:28;;;;;;;;;;;25.50;92.70;;;;;;5039552;28;20242;-58
2022/09/07 12:13:02;;;;;;;;;;;25.50;92.70;;;;;;5046602;28;20415;-59
2022/09/07 12:15:51;;;;;;;;;;;25.50;92.70;;;;;;5048885;28;19928;-62
2022/09/07 12:18:24;;;;;;;;;;;25.50;92.70;;;;;;5045790;28;19929;-59
2022/09/07 12:20:51;;;;;;;;;;;25.50;92.60;;;;;;5037225;28;20312;-58
2022/09/07 12:23:31;;;;;;;;;;;25.50;92.60;;;;;;5041199;28;19944;-60
2022/09/07 12:26:17;;;;;;;;;;;25.50;92.60;;;;;;5049645;28;19929;-60
2022/09/07 12:28:44;;;;;;;;;;;25.50;92.60;;;;;;5044267;28;20320;-60
2022/09/07 12:31:11;;;;;;;;;;;25.50;92.50;;;;;;5035652;28;19932;-59
2022/09/07 12:33:39;;;;;;;;;;;25.50;92.50;;;;;;5058179;28;19932;-59
2022/09/07 12:36:32;;;;;;;;;;;25.50;92.50;;;;;;5062097;28;20003;-60
2022/09/07 12:39:20;;;;;;;;;;;25.50;92.50;;;;;;5053157;28;19944;-61
2022/09/07 12:41:49;;;;;;;;;;;25.60;92.40;;;;;;5051940;28;19924;-59
2022/09/07 12:44:25;;;;;;;;;;;25.60;92.40;;;;;;5045887;28;19936;-60
2022/09/07 12:46:56;;;;;;;;;;;25.60;92.40;;;;;;5038857;28;19933;-58
2022/09/07 12:49:23;;;;;;;;;;;25.60;92.30;;;;;;5043451;28;19929;-63
2022/09/07 12:51:56;;;;;;;;;;;25.60;92.20;;;;;;5043931;28;19931;-62
2022/09/07 12:54:56;;;;;;;;;;;25.60;92.20;;;;;;5045410;28;19929;-59
2022/09/07 12:58:02;;;;;;;;;;;25.60;92.20;;;;;;5043768;28;19948;-58
2022/09/07 13:00:48;;;;;;;;;;;25.60;92.20;;;;;;5029188;28;19955;-61
2022/09/07 13:03:15;;;;;;;;;;;25.60;92.20;;;;;;5041038;28;19940;-58
2022/09/07 13:06:02;;;;;;;;;;;25.60;92.20;;;;;;5027467;28;19936;-57
2022/09/07 13:08:48;;;;;;;;;;;25.60;92.20;;;;;;5047550;28;19936;-58
2022/09/07 13:11:25;;;;;;;;;;;25.60;92.10;;;;;;5039860;28;20329;-61
2022/09/07 13:13:58;;;;;;;;;;;25.70;92.10;;;;;;5046112;28;20407;-60
2022/09/07 13:16:34;;;;;;;;;;;25.70;92.00;;;;;;5047320;28;19924;-59
2022/09/07 13:19:44;;;;;;;;;;;25.70;91.90;;;;;;5045646;28;20308;-60
2022/09/07 13:22:31;;;;;;;;;;;25.70;91.90;;;;;;5038955;28;20327;-59
2022/09/07 13:25:22;;;;;;;;;;;25.80;91.90;;;;;;5041955;28;20315;-62
2022/09/07 13:27:51;;;;;;;;;;;25.80;91.80;;;;;;5043732;28;20107;-58
2022/09/07 13:30:22;;;;;;;;;;;25.80;91.80;;;;;;5045547;28;20381;-57
2022/09/07 13:32:49;;;;;;;;;;;25.80;91.80;;;;;;5044512;28;19928;-59
2022/09/07 13:35:37;;;;;;;;;;;25.80;91.70;;;;;;5042231;28;20388;-57
2022/09/07 13:38:04;;;;;;;;;;;25.90;91.70;;;;;;5044974;28;19933;-60
2022/09/07 13:40:37;;;;;;;;;;;25.90;91.70;;;;;;5047704;28;19944;-59
2022/09/07 13:43:04;;;;;;;;;;;26.00;91.70;;;;;;5024823;28;19936;-60
2022/09/07 13:46:01;;;;;;;;;;;25.90;91.80;;;;;;5040581;28;19931;-60
2022/09/07 13:48:41;;;;;;;;;;;25.90;91.80;;;;;;5033041;28;20304;-62
2022/09/07 13:51:27;;;;;;;;;;;25.80;91.80;;;;;;5040922;28;19929;-60
2022/09/07 13:53:55;;;;;;;;;;;25.80;91.90;;;;;;5045000;28;19928;-57
2022/09/07 13:56:25;;;;;;;;;;;25.80;91.90;;;;;;5042304;28;19928;-59
2022/09/07 13:58:53;;;;;;;;;;;25.80;91.90;;;;;;5028893;28;19928;-60
2022/09/07 14:01:22;;;;;;;;;;;25.80;91.90;;;;;;5046061;28;19925;-59
2022/09/07 14:03:49;;;;;;;;;;;25.80;91.90;;;;;;5046279;28;19929;-61
2022/09/07 14:06:19;;;;;;;;;;;25.80;91.90;;;;;;5029138;28;19932;-60
2022/09/07 14:08:48;;;;;;;;;;;25.80;91.90;;;;;;5042070;28;19929;-58
2022/09/07 14:11:21;;;;;;;;;;;25.70;91.90;;;;;;5020576;28;19929;-56
2022/09/07 14:14:15;;;;;;;;;;;25.70;91.90;;;;;;5044560;28;19928;-59
2022/09/07 14:16:47;;;;;;;;;;;25.70;91.90;;;;;;5037802;28;19932;-57
2022/09/07 14:19:18;;;;;;;;;;;25.70;91.90;;;;;;5027913;28;20652;-59
2022/09/07 14:21:52;;;;;;;;;;;25.70;91.90;;;;;;5043292;28;20197;-61
2022/09/07 14:24:26;;;;;;;;;;;25.70;91.90;;;;;;5037838;28;19929;-58
2022/09/07 14:26:53;;;;;;;;;;;25.70;91.90;;;;;;5045652;28;19967;-59
2022/09/07 14:29:21;;;;;;;;;;;25.70;91.80;;;;;;5046052;28;19928;-60
2022/09/07 14:31:49;;;;;;;;;;;25.70;91.80;;;;;;5042783;28;19929;-59
2022/09/07 14:34:18;;;;;;;;;;;25.70;91.80;;;;;;5044809;28;19929;-60
2022/09/07 14:36:45;;;;;;;;;;;25.70;91.80;;;;;;5047572;28;19929;-60
2022/09/07 14:39:14;;;;;;;;;;;25.70;91.70;;;;;;5014008;28;19936;-60
2022/09/07 14:41:42;;;;;;;;;;;25.70;91.70;;;;;;5048564;28;19928;-59
2022/09/07 14:44:28;;;;;;;;;;;25.70;91.70;;;;;;5049830;28;19929;-60
2022/09/07 14:46:56;;;;;;;;;;;25.70;91.60;;;;;;5046136;28;19925;-61
2022/09/07 14:49:24;;;;;;;;;;;25.70;91.60;;;;;;5042853;28;19925;-59